KSIK

Sikeston Memorial Municipal Airport

Sikeston, Missouri, USA
METAR KSIK 232315Z AUTO 00000KT 10SM SCT040 05/00 A3019 RMK AO2
Observed Flight Rules
Jan-23 @ 23:15 UTC (24 minutes ago) Visual Flight Rules
Wind Visibility Clouds
Calm 10 miles
  • Scattered at 4,000' AGL
Temperatures Readings
Current 5°C / 41°F
Dewpoint 0°C / 32°F
Humidity 70%
Altimeter 30.19" Hg
Pressure 1022 hPa
Elevation 96
METAR KSIK 232315Z AUTO 00000KT 10SM SCT040 05/00 A3019 RMK AO2
Observed Flight Rules
Jan-23 @ 23:15 UTC
(24 minutes ago)
VFR
Wind Visibility
Calm 10 miles
Clouds
  • Scattered at 4,000' AGL
Temperature Dewpoint
5°C / 41°F 0°C / 32°F
Humidity Altimeter Pressure
70% 30.19" Hg 1022 hPa